PST,Max TemperatureF,Mean TemperatureF,Min TemperatureF,Max Dew PointF,MeanDew PointF,Min DewpointF,Max Humidity, Mean Humidity, Min Humidity, Max Sea Level PressureIn, Mean Sea Level PressureIn, Min Sea Level PressureIn, Max VisibilityMiles, Mean VisibilityMiles, Min VisibilityMiles, Max Wind SpeedMPH, Mean Wind SpeedMPH, Max Gust SpeedMPH,PrecipitationIn, CloudCover, Events, WindDirDegrees
2012-11-1,70,63,56,54,53,51,86,70,53,30.04,29.99,29.95,10,7,2,8,1,12,0.00,3,,267
2012-11-2,71,65,58,56,53,50,87,69,51,30.01,29.98,29.91,10,6,4,8,1,13,0.00,3,,83
2012-11-3,77,66,54,59,55,50,93,70,46,30.04,30.00,29.97,10,6,2,6,1,9,0.00,0,,293
2012-11-4,90,72,54,56,41,26,86,49,11,30.07,30.03,29.99,10,10,5,9,1,14,0.00,0,,259
2012-11-5,94,77,59,44,34,21,46,27,7,30.06,30.01,29.96,10,10,10,9,1,13,0.00,0,,305
2012-11-6,84,71,58,61,50,42,93,60,26,30.08,30.03,29.99,10,9,4,7,0,12,0.00,1,,270
2012-11-7,71,65,59,58,56,55,90,76,61,30.07,30.01,29.96,10,5,2,8,1,10,0.00,4,,270
2012-11-8,68,64,59,57,55,48,84,74,64,29.99,29.91,29.88,10,9,5,9,1,15,0.01,8,Rain,273
2012-11-9,65,58,51,47,42,37,77,57,37,29.94,29.90,29.86,10,10,10,12,3,29,0.00,1,,270
2012-11-10,64,55,45,41,31,20,76,50,23,30.17,30.05,29.95,10,10,10,14,4,23,0.00,1,,294
2012-11-11,67,56,44,33,24,11,53,32,11,30.29,30.24,30.16,10,10,9,7,1,14,0.00,0,,90
2012-11-12,74,59,43,41,23,6,59,34,8,30.26,30.18,30.11,10,10,10,8,1,13,0.00,0,,273
2012-11-13,84,68,52,31,16,0,26,15,4,30.12,30.05,29.98,10,10,10,6,2,9,0.00,0,,37
2012-11-14,80,67,53,52,31,12,77,43,8,30.06,30.02,29.98,10,9,6,7,1,12,0.00,0,,330
2012-11-15,68,61,54,55,49,35,93,62,30,30.09,30.06,30.01,10,6,2,7,1,9,0.01,2,Rain,110
2012-11-16,71,64,56,58,50,41,86,62,37,30.12,30.06,30.01,10,10,7,8,1,12,0.03,7,Rain,85
2012-11-17,68,64,60,61,58,55,100,82,63,30.10,30.07,30.03,10,6,2,9,3,13,0.28,8,Rain,102
2012-11-18,70,64,57,59,56,50,97,76,55,30.18,30.11,30.07,10,8,3,9,1,14,0.00,6,,270
2012-11-19,70,62,53,54,52,50,93,73,53,30.24,30.19,30.16,10,10,10,8,1,13,0.00,1,,270
2012-11-20,72,61,50,55,51,48,89,67,44,30.16,30.09,30.04,10,10,10,7,1,13,0.00,0,,190
2012-11-21,69,60,51,55,52,48,96,77,58,30.12,30.07,30.01,10,7,2,6,0,9,0.00,1,,140
2012-11-22,73,63,53,55,53,48,93,69,44,30.12,30.07,30.03,7,4,2,7,1,12,0.00,3,,105
2012-11-23,78,64,49,54,51,47,100,71,41,30.16,30.11,30.06,10,3,0,7,1,10,0.00,3,Fog,287
2012-11-24,86,68,49,56,48,27,100,57,13,30.09,30.00,29.92,10,8,0,9,1,13,0.00,1,Fog,287
2012-11-25,71,62,53,55,54,51,100,79,57,29.98,29.93,29.87,10,4,0,7,1,9,0.00,5,Fog,153
2012-11-26,68,61,53,54,52,50,86,72,58,30.11,30.04,29.98,10,6,3,6,1,12,0.00,4,,123
2012-11-27,70,61,51,54,51,48,89,71,53,30.17,30.12,30.04,10,6,3,9,1,15,0.00,2,,260
2012-11-28,68,62,56,56,53,50,86,71,56,30.20,30.16,30.11,10,6,2,7,1,12,0.03,7,Rain,85
2012-11-29,64,61,58,61,57,55,93,89,84,30.23,30.18,30.14,10,4,2,9,3,13,0.21,8,Rain,100
2012-11-30,66,64,61,63,61,59,100,94,87,30.14,30.11,30.03,10,5,1,7,1,13,0.46,8,Rain,117